sensor_id;sensor_type;location;lat;lon;timestamp;temperature;humidity
75931;DHT22;64609;47.052;15.462;2022-12-11T00:01:10;8.50;74.30
75931;DHT22;64609;47.052;15.462;2022-12-11T00:03:36;8.50;73.40
75931;DHT22;64609;47.052;15.462;2022-12-11T00:06:07;8.60;73.10
75931;DHT22;64609;47.052;15.462;2022-12-11T00:08:33;8.60;73.80
75931;DHT22;64609;47.052;15.462;2022-12-11T00:10:59;8.60;73.50
75931;DHT22;64609;47.052;15.462;2022-12-11T00:13:25;8.60;73.40
75931;DHT22;64609;47.052;15.462;2022-12-11T00:15:50;8.60;73.50
75931;DHT22;64609;47.052;15.462;2022-12-11T00:18:16;8.60;73.10
75931;DHT22;64609;47.052;15.462;2022-12-11T00:20:42;8.60;73.40
75931;DHT22;64609;47.052;15.462;2022-12-11T00:23:08;8.60;73.10
75931;DHT22;64609;47.052;15.462;2022-12-11T00:25:39;8.60;73.90
75931;DHT22;64609;47.052;15.462;2022-12-11T00:28:05;8.60;73.00
75931;DHT22;64609;47.052;15.462;2022-12-11T00:30:30;8.60;72.90
75931;DHT22;64609;47.052;15.462;2022-12-11T00:32:56;8.60;72.80
75931;DHT22;64609;47.052;15.462;2022-12-11T00:35:22;8.50;72.90
75931;DHT22;64609;47.052;15.462;2022-12-11T00:37:47;8.60;73.50
75931;DHT22;64609;47.052;15.462;2022-12-11T00:40:13;8.60;73.10
75931;DHT22;64609;47.052;15.462;2022-12-11T00:42:38;8.60;71.30
75931;DHT22;64609;47.052;15.462;2022-12-11T00:45:04;8.50;68.20
75931;DHT22;64609;47.052;15.462;2022-12-11T00:47:30;8.60;69.90
75931;DHT22;64609;47.052;15.462;2022-12-11T00:49:55;8.70;69.70
75931;DHT22;64609;47.052;15.462;2022-12-11T00:52:21;8.70;70.00
75931;DHT22;64609;47.052;15.462;2022-12-11T00:54:47;8.70;69.50
75931;DHT22;64609;47.052;15.462;2022-12-11T00:57:12;8.70;69.90
75931;DHT22;64609;47.052;15.462;2022-12-11T00:59:38;8.70;69.80
75931;DHT22;64609;47.052;15.462;2022-12-11T01:02:03;8.70;70.10
75931;DHT22;64609;47.052;15.462;2022-12-11T01:04:29;8.70;70.40
75931;DHT22;64609;47.052;15.462;2022-12-11T01:06:55;8.70;70.10
75931;DHT22;64609;47.052;15.462;2022-12-11T01:09:20;8.80;68.80
75931;DHT22;64609;47.052;15.462;2022-12-11T01:12:04;8.80;68.80
75931;DHT22;64609;47.052;15.462;2022-12-11T01:14:30;8.80;69.70
75931;DHT22;64609;47.052;15.462;2022-12-11T01:16:55;8.80;69.50
75931;DHT22;64609;47.052;15.462;2022-12-11T01:19:21;8.70;69.10
75931;DHT22;64609;47.052;15.462;2022-12-11T01:21:47;8.60;68.70
75931;DHT22;64609;47.052;15.462;2022-12-11T01:24:13;8.60;68.90
75931;DHT22;64609;47.052;15.462;2022-12-11T01:26:38;8.60;69.70
75931;DHT22;64609;47.052;15.462;2022-12-11T01:29:04;8.60;67.10
75931;DHT22;64609;47.052;15.462;2022-12-11T01:31:29;8.60;67.50
75931;DHT22;64609;47.052;15.462;2022-12-11T01:33:55;8.70;67.50
75931;DHT22;64609;47.052;15.462;2022-12-11T01:36:22;8.70;65.60
75931;DHT22;64609;47.052;15.462;2022-12-11T01:38:48;8.80;66.30
75931;DHT22;64609;47.052;15.462;2022-12-11T01:41:16;8.80;66.50
75931;DHT22;64609;47.052;15.462;2022-12-11T01:46:34;8.90;65.10
75931;DHT22;64609;47.052;15.462;2022-12-11T01:49:02;8.80;65.50
75931;DHT22;64609;47.052;15.462;2022-12-11T01:51:30;8.90;65.90
75931;DHT22;64609;47.052;15.462;2022-12-11T01:54:01;8.80;65.70
75931;DHT22;64609;47.052;15.462;2022-12-11T01:56:31;8.80;63.80
75931;DHT22;64609;47.052;15.462;2022-12-11T01:59:01;8.80;63.60
75931;DHT22;64609;47.052;15.462;2022-12-11T02:01:36;8.80;64.20
75931;DHT22;64609;47.052;15.462;2022-12-11T02:04:05;8.90;64.50
75931;DHT22;64609;47.052;15.462;2022-12-11T02:06:40;8.90;64.00
75931;DHT22;64609;47.052;15.462;2022-12-11T02:09:15;8.90;65.30
75931;DHT22;64609;47.052;15.462;2022-12-11T02:17:46;8.90;63.20
75931;DHT22;64609;47.052;15.462;2022-12-11T02:31:16;8.90;63.30
75931;DHT22;64609;47.052;15.462;2022-12-11T02:33:58;8.90;61.70
75931;DHT22;64609;47.052;15.462;2022-12-11T02:36:25;8.90;62.00
75931;DHT22;64609;47.052;15.462;2022-12-11T02:38:53;8.90;63.00
75931;DHT22;64609;47.052;15.462;2022-12-11T02:41:22;8.90;60.70
75931;DHT22;64609;47.052;15.462;2022-12-11T02:43:49;8.70;59.80
75931;DHT22;64609;47.052;15.462;2022-12-11T02:46:17;8.80;60.40
75931;DHT22;64609;47.052;15.462;2022-12-11T02:48:46;8.90;60.70
75931;DHT22;64609;47.052;15.462;2022-12-11T02:51:14;9.00;60.40
75931;DHT22;64609;47.052;15.462;2022-12-11T02:53:42;8.90;60.20
75931;DHT22;64609;47.052;15.462;2022-12-11T02:56:39;9.00;60.20
75931;DHT22;64609;47.052;15.462;2022-12-11T02:59:26;9.00;61.00
75931;DHT22;64609;47.052;15.462;2022-12-11T03:01:53;9.00;59.70
75931;DHT22;64609;47.052;15.462;2022-12-11T03:04:19;9.00;60.10
75931;DHT22;64609;47.052;15.462;2022-12-11T03:06:52;9.00;58.30
75931;DHT22;64609;47.052;15.462;2022-12-11T03:09:19;9.00;58.40
75931;DHT22;64609;47.052;15.462;2022-12-11T03:11:44;9.00;54.80
75931;DHT22;64609;47.052;15.462;2022-12-11T03:14:10;9.00;56.70
75931;DHT22;64609;47.052;15.462;2022-12-11T03:16:38;9.00;56.10
75931;DHT22;64609;47.052;15.462;2022-12-11T03:22:06;8.90;53.80
75931;DHT22;64609;47.052;15.462;2022-12-11T03:24:50;8.60;54.20
75931;DHT22;64609;47.052;15.462;2022-12-11T03:27:27;8.50;55.20
75931;DHT22;64609;47.052;15.462;2022-12-11T03:30:04;8.60;55.40
75931;DHT22;64609;47.052;15.462;2022-12-11T03:32:37;8.60;55.30
75931;DHT22;64609;47.052;15.462;2022-12-11T03:35:12;8.60;55.80
75931;DHT22;64609;47.052;15.462;2022-12-11T03:37:40;8.60;55.90
75931;DHT22;64609;47.052;15.462;2022-12-11T03:40:16;8.50;55.50
75931;DHT22;64609;47.052;15.462;2022-12-11T03:42:47;8.50;55.90
75931;DHT22;64609;47.052;15.462;2022-12-11T03:45:13;8.50;56.10
75931;DHT22;64609;47.052;15.462;2022-12-11T03:47:41;8.40;55.00
75931;DHT22;64609;47.052;15.462;2022-12-11T03:50:09;8.40;57.00
75931;DHT22;64609;47.052;15.462;2022-12-11T03:52:36;8.40;57.30
75931;DHT22;64609;47.052;15.462;2022-12-11T03:55:05;8.50;57.80
75931;DHT22;64609;47.052;15.462;2022-12-11T03:57:35;8.40;57.00
75931;DHT22;64609;47.052;15.462;2022-12-11T04:00:02;8.40;58.10
75931;DHT22;64609;47.052;15.462;2022-12-11T04:02:29;8.30;56.90
75931;DHT22;64609;47.052;15.462;2022-12-11T04:04:55;8.30;58.20
75931;DHT22;64609;47.052;15.462;2022-12-11T04:07:21;8.40;57.90
75931;DHT22;64609;47.052;15.462;2022-12-11T04:09:46;8.40;57.80
75931;DHT22;64609;47.052;15.462;2022-12-11T04:12:12;8.40;57.30
75931;DHT22;64609;47.052;15.462;2022-12-11T04:14:38;8.30;56.80
75931;DHT22;64609;47.052;15.462;2022-12-11T04:17:22;8.30;57.60
75931;DHT22;64609;47.052;15.462;2022-12-11T04:20:06;8.40;57.40
75931;DHT22;64609;47.052;15.462;2022-12-11T04:22:50;8.30;57.00
75931;DHT22;64609;47.052;15.462;2022-12-11T04:25:34;8.30;57.70
75931;DHT22;64609;47.052;15.462;2022-12-11T04:28:00;8.30;56.40
75931;DHT22;64609;47.052;15.462;2022-12-11T04:30:25;8.20;55.10
75931;DHT22;64609;47.052;15.462;2022-12-11T04:32:53;8.30;56.70
75931;DHT22;64609;47.052;15.462;2022-12-11T04:35:19;8.30;56.50
75931;DHT22;64609;47.052;15.462;2022-12-11T04:37:45;8.30;56.60
75931;DHT22;64609;47.052;15.462;2022-12-11T04:40:13;8.30;55.90
75931;DHT22;64609;47.052;15.462;2022-12-11T04:42:39;8.30;54.40
75931;DHT22;64609;47.052;15.462;2022-12-11T04:45:06;8.30;54.50
75931;DHT22;64609;47.052;15.462;2022-12-11T04:47:34;8.30;53.80
75931;DHT22;64609;47.052;15.462;2022-12-11T04:50:00;8.30;55.60
75931;DHT22;64609;47.052;15.462;2022-12-11T04:52:26;8.30;55.60
75931;DHT22;64609;47.052;15.462;2022-12-11T04:54:51;8.30;56.30
75931;DHT22;64609;47.052;15.462;2022-12-11T04:57:17;8.40;55.60
75931;DHT22;64609;47.052;15.462;2022-12-11T04:59:45;8.40;55.60
75931;DHT22;64609;47.052;15.462;2022-12-11T05:02:10;8.40;54.70
75931;DHT22;64609;47.052;15.462;2022-12-11T05:04:36;8.30;54.20
75931;DHT22;64609;47.052;15.462;2022-12-11T05:07:01;8.30;54.20
75931;DHT22;64609;47.052;15.462;2022-12-11T05:09:27;8.30;56.30
75931;DHT22;64609;47.052;15.462;2022-12-11T05:11:54;8.40;55.60
75931;DHT22;64609;47.052;15.462;2022-12-11T05:14:20;8.40;54.90
75931;DHT22;64609;47.052;15.462;2022-12-11T05:16:46;8.50;53.20
75931;DHT22;64609;47.052;15.462;2022-12-11T05:19:12;8.40;50.90
75931;DHT22;64609;47.052;15.462;2022-12-11T05:21:37;8.40;53.30
75931;DHT22;64609;47.052;15.462;2022-12-11T05:24:03;8.50;53.50
75931;DHT22;64609;47.052;15.462;2022-12-11T05:26:29;8.50;54.70
75931;DHT22;64609;47.052;15.462;2022-12-11T05:28:54;8.50;52.00
75931;DHT22;64609;47.052;15.462;2022-12-11T05:31:23;8.50;51.60
75931;DHT22;64609;47.052;15.462;2022-12-11T05:33:50;8.50;52.40
75931;DHT22;64609;47.052;15.462;2022-12-11T05:36:19;8.50;51.30
75931;DHT22;64609;47.052;15.462;2022-12-11T05:38:45;8.40;50.70
75931;DHT22;64609;47.052;15.462;2022-12-11T05:41:13;8.50;52.00
75931;DHT22;64609;47.052;15.462;2022-12-11T05:43:39;8.50;52.00
75931;DHT22;64609;47.052;15.462;2022-12-11T05:46:11;8.60;52.70
75931;DHT22;64609;47.052;15.462;2022-12-11T05:48:38;8.60;52.50
75931;DHT22;64609;47.052;15.462;2022-12-11T05:51:05;8.50;50.00
75931;DHT22;64609;47.052;15.462;2022-12-11T05:53:32;8.50;52.20
75931;DHT22;64609;47.052;15.462;2022-12-11T05:56:16;8.50;51.30
75931;DHT22;64609;47.052;15.462;2022-12-11T05:58:43;8.60;50.10
75931;DHT22;64609;47.052;15.462;2022-12-11T06:01:15;8.60;50.90
75931;DHT22;64609;47.052;15.462;2022-12-11T06:03:41;8.60;51.80
75931;DHT22;64609;47.052;15.462;2022-12-11T06:06:07;8.70;52.50
75931;DHT22;64609;47.052;15.462;2022-12-11T06:08:34;8.60;49.50
75931;DHT22;64609;47.052;15.462;2022-12-11T06:11:00;8.60;51.00
75931;DHT22;64609;47.052;15.462;2022-12-11T06:13:26;8.70;50.70
75931;DHT22;64609;47.052;15.462;2022-12-11T06:15:52;8.60;50.20
75931;DHT22;64609;47.052;15.462;2022-12-11T06:18:17;8.60;49.30
75931;DHT22;64609;47.052;15.462;2022-12-11T06:20:43;8.60;50.00
75931;DHT22;64609;47.052;15.462;2022-12-11T06:23:09;8.60;50.20
75931;DHT22;64609;47.052;15.462;2022-12-11T06:25:37;8.70;49.60
75931;DHT22;64609;47.052;15.462;2022-12-11T06:28:03;8.70;49.60
75931;DHT22;64609;47.052;15.462;2022-12-11T06:30:29;8.70;49.60
75931;DHT22;64609;47.052;15.462;2022-12-11T06:32:56;8.70;49.70
75931;DHT22;64609;47.052;15.462;2022-12-11T06:35:22;8.70;49.00
75931;DHT22;64609;47.052;15.462;2022-12-11T06:37:48;8.70;48.80
75931;DHT22;64609;47.052;15.462;2022-12-11T06:40:14;8.70;49.30
75931;DHT22;64609;47.052;15.462;2022-12-11T06:42:39;8.80;50.20
75931;DHT22;64609;47.052;15.462;2022-12-11T06:45:05;8.80;49.60
75931;DHT22;64609;47.052;15.462;2022-12-11T06:47:31;8.80;49.20
75931;DHT22;64609;47.052;15.462;2022-12-11T06:49:57;8.70;47.30
75931;DHT22;64609;47.052;15.462;2022-12-11T06:52:24;8.60;48.10
75931;DHT22;64609;47.052;15.462;2022-12-11T06:54:51;8.60;48.30
75931;DHT22;64609;47.052;15.462;2022-12-11T06:57:17;8.70;48.50
75931;DHT22;64609;47.052;15.462;2022-12-11T06:59:44;8.70;48.20
75931;DHT22;64609;47.052;15.462;2022-12-11T07:02:17;8.70;48.00
75931;DHT22;64609;47.052;15.462;2022-12-11T07:04:43;8.80;48.30
75931;DHT22;64609;47.052;15.462;2022-12-11T07:07:09;8.70;47.40
75931;DHT22;64609;47.052;15.462;2022-12-11T07:09:38;8.70;47.50
75931;DHT22;64609;47.052;15.462;2022-12-11T07:12:04;8.70;46.60
75931;DHT22;64609;47.052;15.462;2022-12-11T07:14:31;8.70;47.60
75931;DHT22;64609;47.052;15.462;2022-12-11T07:16:56;8.80;47.50
75931;DHT22;64609;47.052;15.462;2022-12-11T07:19:22;8.80;47.40
75931;DHT22;64609;47.052;15.462;2022-12-11T07:21:48;8.80;46.80
75931;DHT22;64609;47.052;15.462;2022-12-11T07:24:14;8.80;46.80
75931;DHT22;64609;47.052;15.462;2022-12-11T07:26:39;8.80;47.10
75931;DHT22;64609;47.052;15.462;2022-12-11T07:29:05;8.70;46.30
75931;DHT22;64609;47.052;15.462;2022-12-11T07:31:31;8.80;46.90
75931;DHT22;64609;47.052;15.462;2022-12-11T07:33:59;8.90;46.80
75931;DHT22;64609;47.052;15.462;2022-12-11T07:36:27;8.90;46.80
75931;DHT22;64609;47.052;15.462;2022-12-11T07:38:53;8.90;46.90
75931;DHT22;64609;47.052;15.462;2022-12-11T07:41:19;8.90;46.50
75931;DHT22;64609;47.052;15.462;2022-12-11T07:43:44;8.90;45.90
75931;DHT22;64609;47.052;15.462;2022-12-11T07:46:13;8.90;45.60
75931;DHT22;64609;47.052;15.462;2022-12-11T07:48:41;8.90;46.70
75931;DHT22;64609;47.052;15.462;2022-12-11T07:53:34;9.00;45.50
75931;DHT22;64609;47.052;15.462;2022-12-11T07:55:59;9.00;44.50
75931;DHT22;64609;47.052;15.462;2022-12-11T07:58:25;9.00;45.30
75931;DHT22;64609;47.052;15.462;2022-12-11T08:00:50;9.10;45.90
75931;DHT22;64609;47.052;15.462;2022-12-11T08:03:16;9.20;45.80
75931;DHT22;64609;47.052;15.462;2022-12-11T08:05:47;9.20;46.70
75931;DHT22;64609;47.052;15.462;2022-12-11T08:08:14;9.20;47.10
75931;DHT22;64609;47.052;15.462;2022-12-11T08:10:40;9.20;46.10
75931;DHT22;64609;47.052;15.462;2022-12-11T08:13:06;9.30;45.90
75931;DHT22;64609;47.052;15.462;2022-12-11T08:15:31;9.20;44.20
75931;DHT22;64609;47.052;15.462;2022-12-11T08:17:58;9.20;45.30
75931;DHT22;64609;47.052;15.462;2022-12-11T08:20:23;9.20;45.60
75931;DHT22;64609;47.052;15.462;2022-12-11T08:22:49;9.20;46.10
75931;DHT22;64609;47.052;15.462;2022-12-11T08:25:15;9.30;45.20
75931;DHT22;64609;47.052;15.462;2022-12-11T08:27:40;9.30;45.30
75931;DHT22;64609;47.052;15.462;2022-12-11T08:30:07;9.40;45.20
75931;DHT22;64609;47.052;15.462;2022-12-11T08:32:33;9.40;44.90
75931;DHT22;64609;47.052;15.462;2022-12-11T08:34:59;9.50;45.30
75931;DHT22;64609;47.052;15.462;2022-12-11T08:37:25;9.50;45.10
75931;DHT22;64609;47.052;15.462;2022-12-11T08:39:50;9.50;45.10
75931;DHT22;64609;47.052;15.462;2022-12-11T08:42:16;9.50;44.90
75931;DHT22;64609;47.052;15.462;2022-12-11T08:44:42;9.50;44.30
75931;DHT22;64609;47.052;15.462;2022-12-11T08:47:07;9.50;44.50
75931;DHT22;64609;47.052;15.462;2022-12-11T08:49:34;9.50;43.90
75931;DHT22;64609;47.052;15.462;2022-12-11T08:52:02;9.60;44.20
75931;DHT22;64609;47.052;15.462;2022-12-11T08:54:28;9.70;42.90
75931;DHT22;64609;47.052;15.462;2022-12-11T08:56:53;9.60;43.50
75931;DHT22;64609;47.052;15.462;2022-12-11T08:59:19;9.70;43.80
75931;DHT22;64609;47.052;15.462;2022-12-11T09:01:44;9.70;43.80
75931;DHT22;64609;47.052;15.462;2022-12-11T09:04:10;9.70;43.20
75931;DHT22;64609;47.052;15.462;2022-12-11T09:06:36;9.70;42.10
75931;DHT22;64609;47.052;15.462;2022-12-11T09:09:02;9.70;43.20
75931;DHT22;64609;47.052;15.462;2022-12-11T09:11:32;9.80;43.20
75931;DHT22;64609;47.052;15.462;2022-12-11T09:13:58;9.90;43.40
75931;DHT22;64609;47.052;15.462;2022-12-11T09:16:25;10.00;43.40
75931;DHT22;64609;47.052;15.462;2022-12-11T09:18:52;10.00;43.20
75931;DHT22;64609;47.052;15.462;2022-12-11T09:21:20;10.00;41.90
75931;DHT22;64609;47.052;15.462;2022-12-11T09:23:46;10.10;42.70
75931;DHT22;64609;47.052;15.462;2022-12-11T09:26:15;10.00;41.80
75931;DHT22;64609;47.052;15.462;2022-12-11T09:28:41;10.10;41.90
75931;DHT22;64609;47.052;15.462;2022-12-11T09:31:17;10.00;41.80
75931;DHT22;64609;47.052;15.462;2022-12-11T09:33:45;10.10;42.50
75931;DHT22;64609;47.052;15.462;2022-12-11T09:36:11;10.10;42.40
75931;DHT22;64609;47.052;15.462;2022-12-11T09:38:37;10.20;42.30
75931;DHT22;64609;47.052;15.462;2022-12-11T09:46:24;10.10;41.30
75931;DHT22;64609;47.052;15.462;2022-12-11T09:48:50;10.10;41.00
75931;DHT22;64609;47.052;15.462;2022-12-11T09:51:27;10.00;41.40
75931;DHT22;64609;47.052;15.462;2022-12-11T09:53:58;10.00;41.30
75931;DHT22;64609;47.052;15.462;2022-12-11T09:56:49;10.00;40.70
75931;DHT22;64609;47.052;15.462;2022-12-11T09:59:39;10.00;41.10
75931;DHT22;64609;47.052;15.462;2022-12-11T10:13:00;9.90;41.30
75931;DHT22;64609;47.052;15.462;2022-12-11T10:15:53;10.00;41.20
75931;DHT22;64609;47.052;15.462;2022-12-11T10:18:23;10.00;40.50
75931;DHT22;64609;47.052;15.462;2022-12-11T10:20:51;10.00;40.20
75931;DHT22;64609;47.052;15.462;2022-12-11T10:26:20;9.80;40.50
75931;DHT22;64609;47.052;15.462;2022-12-11T10:28:46;9.90;40.60
75931;DHT22;64609;47.052;15.462;2022-12-11T10:31:19;9.90;40.30
75931;DHT22;64609;47.052;15.462;2022-12-11T10:33:57;9.90;40.20
75931;DHT22;64609;47.052;15.462;2022-12-11T10:36:31;9.90;41.10
75931;DHT22;64609;47.052;15.462;2022-12-11T10:38:58;10.00;41.00
75931;DHT22;64609;47.052;15.462;2022-12-11T10:41:37;10.10;41.20
75931;DHT22;64609;47.052;15.462;2022-12-11T10:46:39;10.10;40.30
75931;DHT22;64609;47.052;15.462;2022-12-11T10:49:04;10.20;41.20
75931;DHT22;64609;47.052;15.462;2022-12-11T10:54:03;10.00;39.20
75931;DHT22;64609;47.052;15.462;2022-12-11T10:56:32;10.00;39.40
75931;DHT22;64609;47.052;15.462;2022-12-11T10:58:59;10.00;38.90
75931;DHT22;64609;47.052;15.462;2022-12-11T11:01:27;10.00;38.60
75931;DHT22;64609;47.052;15.462;2022-12-11T11:06:26;10.00;38.90
75931;DHT22;64609;47.052;15.462;2022-12-11T11:08:54;10.10;39.40
75931;DHT22;64609;47.052;15.462;2022-12-11T11:11:37;10.10;39.40
75931;DHT22;64609;47.052;15.462;2022-12-11T11:14:19;10.20;38.80
75931;DHT22;64609;47.052;15.462;2022-12-11T11:16:46;10.20;38.90
75931;DHT22;64609;47.052;15.462;2022-12-11T11:19:29;10.30;39.30
75931;DHT22;64609;47.052;15.462;2022-12-11T11:22:00;10.30;39.20
75931;DHT22;64609;47.052;15.462;2022-12-11T11:28:33;10.40;40.20
75931;DHT22;64609;47.052;15.462;2022-12-11T11:30:38;10.50;39.70
75931;DHT22;64609;47.052;15.462;2022-12-11T11:33:17;10.60;39.50
75931;DHT22;64609;47.052;15.462;2022-12-11T11:35:52;10.60;40.20
75931;DHT22;64609;47.052;15.462;2022-12-11T11:38:20;10.70;40.60
75931;DHT22;64609;47.052;15.462;2022-12-11T11:46:29;10.70;39.40
75931;DHT22;64609;47.052;15.462;2022-12-11T11:49:37;10.70;39.80
75931;DHT22;64609;47.052;15.462;2022-12-11T11:52:16;10.60;40.00
75931;DHT22;64609;47.052;15.462;2022-12-11T11:54:57;10.50;39.10
75931;DHT22;64609;47.052;15.462;2022-12-11T11:57:34;10.50;39.00
75931;DHT22;64609;47.052;15.462;2022-12-11T12:00:17;10.50;39.40
75931;DHT22;64609;47.052;15.462;2022-12-11T12:02:46;10.50;40.10
75931;DHT22;64609;47.052;15.462;2022-12-11T12:05:14;10.50;39.50
75931;DHT22;64609;47.052;15.462;2022-12-11T12:16:01;10.50;39.90
75931;DHT22;64609;47.052;15.462;2022-12-11T12:26:24;10.20;38.70
75931;DHT22;64609;47.052;15.462;2022-12-11T12:44:54;9.90;39.90
75931;DHT22;64609;47.052;15.462;2022-12-11T12:47:25;9.90;40.30
75931;DHT22;64609;47.052;15.462;2022-12-11T12:49:53;9.90;40.00
75931;DHT22;64609;47.052;15.462;2022-12-11T12:54:53;9.80;41.30
75931;DHT22;64609;47.052;15.462;2022-12-11T13:00:09;9.80;40.80
75931;DHT22;64609;47.052;15.462;2022-12-11T13:02:42;9.80;40.80
75931;DHT22;64609;47.052;15.462;2022-12-11T13:05:32;9.80;39.60
75931;DHT22;64609;47.052;15.462;2022-12-11T13:08:01;9.70;38.30
75931;DHT22;64609;47.052;15.462;2022-12-11T13:12:58;9.80;39.60
75931;DHT22;64609;47.052;15.462;2022-12-11T13:15:40;9.70;40.70
75931;DHT22;64609;47.052;15.462;2022-12-11T13:20:55;9.70;40.00
75931;DHT22;64609;47.052;15.462;2022-12-11T13:23:29;9.60;39.90
75931;DHT22;64609;47.052;15.462;2022-12-11T13:26:01;9.70;39.40
75931;DHT22;64609;47.052;15.462;2022-12-11T13:28:33;9.60;39.00
75931;DHT22;64609;47.052;15.462;2022-12-11T13:33:46;9.60;39.90
75931;DHT22;64609;47.052;15.462;2022-12-11T13:36:19;9.60;40.50
75931;DHT22;64609;47.052;15.462;2022-12-11T13:41:22;9.30;38.40
75931;DHT22;64609;47.052;15.462;2022-12-11T13:43:49;9.20;37.50
75931;DHT22;64609;47.052;15.462;2022-12-11T13:46:20;9.20;38.90
75931;DHT22;64609;47.052;15.462;2022-12-11T13:48:51;9.20;39.80
75931;DHT22;64609;47.052;15.462;2022-12-11T13:51:23;9.20;40.00
75931;DHT22;64609;47.052;15.462;2022-12-11T13:54:00;9.10;40.10
75931;DHT22;64609;47.052;15.462;2022-12-11T13:56:26;9.10;42.30
75931;DHT22;64609;47.052;15.462;2022-12-11T13:58:52;9.10;41.00
75931;DHT22;64609;47.052;15.462;2022-12-11T14:01:28;9.00;40.40
75931;DHT22;64609;47.052;15.462;2022-12-11T14:04:03;9.00;40.90
75931;DHT22;64609;47.052;15.462;2022-12-11T14:06:32;9.00;40.70
75931;DHT22;64609;47.052;15.462;2022-12-11T14:09:00;9.00;41.40
75931;DHT22;64609;47.052;15.462;2022-12-11T14:11:30;9.00;41.80
75931;DHT22;64609;47.052;15.462;2022-12-11T14:14:02;8.90;41.80
75931;DHT22;64609;47.052;15.462;2022-12-11T14:16:28;8.80;40.90
75931;DHT22;64609;47.052;15.462;2022-12-11T14:19:00;8.70;40.40
75931;DHT22;64609;47.052;15.462;2022-12-11T14:21:26;8.70;41.40
75931;DHT22;64609;47.052;15.462;2022-12-11T14:23:55;8.70;41.30
75931;DHT22;64609;47.052;15.462;2022-12-11T14:26:48;8.60;42.00
75931;DHT22;64609;47.052;15.462;2022-12-11T14:29:32;8.60;42.00
75931;DHT22;64609;47.052;15.462;2022-12-11T14:32:02;8.60;43.40
75931;DHT22;64609;47.052;15.462;2022-12-11T14:34:39;8.60;42.80
75931;DHT22;64609;47.052;15.462;2022-12-11T14:37:09;8.50;41.70
75931;DHT22;64609;47.052;15.462;2022-12-11T14:39:43;8.40;41.50
75931;DHT22;64609;47.052;15.462;2022-12-11T14:42:13;8.40;43.10
75931;DHT22;64609;47.052;15.462;2022-12-11T14:44:55;8.30;42.30
75931;DHT22;64609;47.052;15.462;2022-12-11T14:47:28;8.40;42.80
75931;DHT22;64609;47.052;15.462;2022-12-11T14:50:01;8.30;42.50
75931;DHT22;64609;47.052;15.462;2022-12-11T14:52:40;8.30;43.00
75931;DHT22;64609;47.052;15.462;2022-12-11T14:55:08;8.30;43.70
75931;DHT22;64609;47.052;15.462;2022-12-11T14:57:35;8.30;45.70
75931;DHT22;64609;47.052;15.462;2022-12-11T15:00:04;8.20;43.70
75931;DHT22;64609;47.052;15.462;2022-12-11T15:02:32;8.20;43.40
75931;DHT22;64609;47.052;15.462;2022-12-11T15:05:04;8.20;44.10
75931;DHT22;64609;47.052;15.462;2022-12-11T15:07:30;8.20;43.30
75931;DHT22;64609;47.052;15.462;2022-12-11T15:09:56;8.10;44.00
75931;DHT22;64609;47.052;15.462;2022-12-11T15:12:21;8.10;44.30
75931;DHT22;64609;47.052;15.462;2022-12-11T15:17:22;8.10;45.30
75931;DHT22;64609;47.052;15.462;2022-12-11T15:20:09;8.10;45.10
75931;DHT22;64609;47.052;15.462;2022-12-11T15:22:44;8.00;44.20
75931;DHT22;64609;47.052;15.462;2022-12-11T15:25:21;8.00;45.70
75931;DHT22;64609;47.052;15.462;2022-12-11T15:27:50;7.90;44.00
75931;DHT22;64609;47.052;15.462;2022-12-11T15:32:44;7.80;45.20
75931;DHT22;64609;47.052;15.462;2022-12-11T15:35:25;7.80;45.80
75931;DHT22;64609;47.052;15.462;2022-12-11T15:37:51;7.80;45.40
75931;DHT22;64609;47.052;15.462;2022-12-11T15:40:16;7.70;44.30
75931;DHT22;64609;47.052;15.462;2022-12-11T15:42:42;7.70;44.90
75931;DHT22;64609;47.052;15.462;2022-12-11T15:45:15;7.40;43.90
75931;DHT22;64609;47.052;15.462;2022-12-11T15:47:41;7.40;44.70
75931;DHT22;64609;47.052;15.462;2022-12-11T15:50:27;7.40;46.40
75931;DHT22;64609;47.052;15.462;2022-12-11T15:52:54;7.50;47.50
75931;DHT22;64609;47.052;15.462;2022-12-11T15:55:21;7.50;46.60
75931;DHT22;64609;47.052;15.462;2022-12-11T15:58:00;7.50;48.10
75931;DHT22;64609;47.052;15.462;2022-12-11T16:00:27;7.50;47.00
75931;DHT22;64609;47.052;15.462;2022-12-11T16:02:53;7.40;46.80
75931;DHT22;64609;47.052;15.462;2022-12-11T16:05:19;7.50;47.10
75931;DHT22;64609;47.052;15.462;2022-12-11T16:07:46;7.50;48.00
75931;DHT22;64609;47.052;15.462;2022-12-11T16:10:14;7.40;46.20
75931;DHT22;64609;47.052;15.462;2022-12-11T16:12:40;7.40;47.00
75931;DHT22;64609;47.052;15.462;2022-12-11T16:15:07;7.40;44.80
75931;DHT22;64609;47.052;15.462;2022-12-11T16:17:33;7.30;46.90
75931;DHT22;64609;47.052;15.462;2022-12-11T16:19:59;7.30;46.40
75931;DHT22;64609;47.052;15.462;2022-12-11T16:22:24;7.30;48.80
75931;DHT22;64609;47.052;15.462;2022-12-11T16:24:53;7.20;48.00
75931;DHT22;64609;47.052;15.462;2022-12-11T16:27:19;7.20;48.70
75931;DHT22;64609;47.052;15.462;2022-12-11T16:29:45;7.20;49.20
75931;DHT22;64609;47.052;15.462;2022-12-11T16:32:11;7.20;47.90
75931;DHT22;64609;47.052;15.462;2022-12-11T16:34:36;7.30;47.90
75931;DHT22;64609;47.052;15.462;2022-12-11T16:37:03;7.20;48.10
75931;DHT22;64609;47.052;15.462;2022-12-11T16:39:29;7.20;47.70
75931;DHT22;64609;47.052;15.462;2022-12-11T16:41:54;7.20;48.60
75931;DHT22;64609;47.052;15.462;2022-12-11T16:44:22;7.20;49.40
75931;DHT22;64609;47.052;15.462;2022-12-11T16:46:49;7.20;49.00
75931;DHT22;64609;47.052;15.462;2022-12-11T16:49:15;7.20;49.10
75931;DHT22;64609;47.052;15.462;2022-12-11T16:51:41;7.10;48.90
75931;DHT22;64609;47.052;15.462;2022-12-11T16:54:07;7.00;50.30
75931;DHT22;64609;47.052;15.462;2022-12-11T16:56:33;7.10;49.60
75931;DHT22;64609;47.052;15.462;2022-12-11T16:59:02;7.00;50.30
75931;DHT22;64609;47.052;15.462;2022-12-11T17:01:28;7.10;49.90
75931;DHT22;64609;47.052;15.462;2022-12-11T17:03:54;7.00;51.20
75931;DHT22;64609;47.052;15.462;2022-12-11T17:06:20;7.00;51.40
75931;DHT22;64609;47.052;15.462;2022-12-11T17:08:46;7.00;51.50
75931;DHT22;64609;47.052;15.462;2022-12-11T17:11:17;7.00;51.20
75931;DHT22;64609;47.052;15.462;2022-12-11T17:13:43;7.00;49.40
75931;DHT22;64609;47.052;15.462;2022-12-11T17:16:11;6.80;50.60
75931;DHT22;64609;47.052;15.462;2022-12-11T17:18:38;6.80;49.80
75931;DHT22;64609;47.052;15.462;2022-12-11T17:21:11;6.80;51.20
75931;DHT22;64609;47.052;15.462;2022-12-11T17:23:38;6.90;50.70
75931;DHT22;64609;47.052;15.462;2022-12-11T17:26:04;6.90;51.00
75931;DHT22;64609;47.052;15.462;2022-12-11T17:28:30;6.90;50.90
75931;DHT22;64609;47.052;15.462;2022-12-11T17:30:56;6.90;50.40
75931;DHT22;64609;47.052;15.462;2022-12-11T17:33:22;6.90;50.70
75931;DHT22;64609;47.052;15.462;2022-12-11T17:35:48;6.90;51.10